createdAt,value
2023-04-09T00:02:47.383Z,95668
2023-04-09T00:06:12.614Z,95672
2023-04-09T00:09:37.864Z,95670
2023-04-09T00:13:03.143Z,95667
2023-04-09T00:16:28.415Z,95659
2023-04-09T00:19:53.618Z,95662
2023-04-09T00:23:18.912Z,95660
2023-04-09T00:26:44.136Z,95657
2023-04-09T00:30:09.383Z,95660
2023-04-09T00:33:34.666Z,95658
2023-04-09T00:36:59.927Z,95663
2023-04-09T00:40:25.202Z,95661
2023-04-09T00:43:50.462Z,95666
2023-04-09T00:47:15.748Z,95672
2023-04-09T00:50:41.123Z,95666
2023-04-09T00:54:06.270Z,95672
2023-04-09T00:57:31.534Z,95667
2023-04-09T01:00:56.831Z,95666
2023-04-09T01:04:22.043Z,95662
2023-04-09T01:07:47.305Z,95666
2023-04-09T01:11:12.526Z,95665
2023-04-09T01:14:37.758Z,95661
2023-04-09T01:18:03.060Z,95656
2023-04-09T01:21:28.298Z,95658
2023-04-09T01:24:53.570Z,95659
2023-04-09T01:28:18.845Z,95660
2023-04-09T01:31:44.070Z,95656
2023-04-09T01:35:09.296Z,95659
2023-04-09T01:38:34.514Z,95652
2023-04-09T01:41:59.829Z,95651
2023-04-09T01:45:25.656Z,95659
2023-04-09T01:48:51.078Z,95666
2023-04-09T01:52:16.196Z,95663
2023-04-09T01:55:41.437Z,95662
2023-04-09T01:59:06.722Z,95665
2023-04-09T02:02:32.010Z,95668
2023-04-09T02:05:57.218Z,95679
2023-04-09T02:09:22.449Z,95684
2023-04-09T02:12:47.703Z,95686
2023-04-09T02:16:13.023Z,95686
2023-04-09T02:19:38.167Z,95690
2023-04-09T02:23:03.403Z,95686
2023-04-09T02:26:28.706Z,95687
2023-04-09T02:29:53.924Z,95690
2023-04-09T02:33:19.210Z,95695
2023-04-09T02:36:44.421Z,95694
2023-04-09T02:40:09.657Z,95687
2023-04-09T02:43:34.922Z,95689
2023-04-09T02:47:00.165Z,95688
2023-04-09T02:50:25.742Z,95691
2023-04-09T02:53:50.641Z,95693
2023-04-09T02:57:15.874Z,95692
2023-04-09T03:00:41.114Z,95692
2023-04-09T03:04:06.438Z,95691
2023-04-09T03:07:31.619Z,95686
2023-04-09T03:10:56.866Z,95681
2023-04-09T03:14:22.084Z,95685
2023-04-09T03:17:47.363Z,95688
2023-04-09T03:21:14.391Z,95690
2023-04-09T03:24:37.841Z,95691
2023-04-09T03:28:03.063Z,95691
2023-04-09T03:31:28.296Z,95691
2023-04-09T03:34:53.539Z,95688
2023-04-09T03:38:18.816Z,95687
2023-04-09T03:41:44.092Z,95684
2023-04-09T03:45:09.303Z,95687
2023-04-09T03:48:34.519Z,95686
2023-04-09T03:51:59.762Z,95692
2023-04-09T03:55:25.036Z,95690
2023-04-09T03:58:50.411Z,95691
2023-04-09T04:02:15.633Z,95691
2023-04-09T04:05:40.784Z,95692
2023-04-09T04:09:06.025Z,95693
2023-04-09T04:12:31.252Z,95692
2023-04-09T04:15:56.529Z,95697
2023-04-09T04:19:21.740Z,95698
2023-04-09T04:22:46.978Z,95698
2023-04-09T04:26:12.260Z,95700
2023-04-09T04:29:37.447Z,95701
2023-04-09T04:33:02.785Z,95705
2023-04-09T04:36:28.019Z,95697
2023-04-09T04:39:53.253Z,95703
2023-04-09T04:43:18.532Z,95706
2023-04-09T04:46:43.782Z,95704
2023-04-09T04:50:09.070Z,95705
2023-04-09T04:53:34.288Z,95702
2023-04-09T04:56:59.518Z,95706
2023-04-09T05:00:24.799Z,95710
2023-04-09T05:03:50.080Z,95709
2023-04-09T05:07:15.287Z,95703
2023-04-09T05:10:40.544Z,95707
2023-04-09T05:14:05.715Z,95711
2023-04-09T05:17:30.967Z,95710
2023-04-09T05:20:56.185Z,95713
2023-04-09T05:24:21.449Z,95722
2023-04-09T05:27:46.663Z,95719
2023-04-09T05:31:11.935Z,95719
2023-04-09T05:34:37.023Z,95725
2023-04-09T05:38:02.197Z,95723
2023-04-09T05:41:27.409Z,95725
2023-04-09T05:44:52.562Z,95728
2023-04-09T05:48:17.758Z,95731
2023-04-09T05:51:42.951Z,95734
2023-04-09T05:55:08.148Z,95738
2023-04-09T05:58:33.780Z,95740
2023-04-09T06:02:00.083Z,95736
2023-04-09T06:05:30.335Z,95738
2023-04-09T06:08:56.060Z,95736
2023-04-09T06:12:21.312Z,95737
2023-04-09T06:15:46.810Z,95736
2023-04-09T06:19:12.015Z,95738
2023-04-09T06:22:37.344Z,95734
2023-04-09T06:26:02.737Z,95737
2023-04-09T06:29:28.194Z,95734
2023-04-09T06:32:55.204Z,95730
2023-04-09T06:36:18.889Z,95731
2023-04-09T06:39:47.692Z,95736
2023-04-09T06:43:09.463Z,95735
2023-04-09T06:46:34.674Z,95737
2023-04-09T06:49:59.857Z,95735
2023-04-09T06:53:25.064Z,95746
2023-04-09T06:56:50.476Z,95742
2023-04-09T07:00:15.710Z,95749
2023-04-09T07:03:41.030Z,95753
2023-04-09T07:07:06.158Z,95748
2023-04-09T07:10:31.382Z,95757
2023-04-09T07:13:56.737Z,95752
2023-04-09T07:17:22.051Z,95756
2023-04-09T07:20:47.288Z,95764
2023-04-09T07:24:12.575Z,95767
2023-04-09T07:27:37.976Z,95762
2023-04-09T07:31:03.316Z,95762
2023-04-09T07:34:28.641Z,95764
2023-04-09T07:37:53.949Z,95773
2023-04-09T07:41:19.287Z,95775
2023-04-09T07:44:44.566Z,95769
2023-04-09T07:48:09.719Z,95774
2023-04-09T07:51:34.890Z,95771
2023-04-09T07:55:00.136Z,95771
2023-04-09T07:58:25.338Z,95767
2023-04-09T08:01:50.654Z,95772
2023-04-09T08:05:15.864Z,95767
2023-04-09T08:08:41.105Z,95770
2023-04-09T08:12:06.333Z,95772
2023-04-09T08:15:31.645Z,95771
2023-04-09T08:18:58.113Z,95771
2023-04-09T08:22:23.346Z,95774
2023-04-09T08:25:49.324Z,95776
2023-04-09T08:29:14.617Z,95777
2023-04-09T08:32:39.866Z,95777
2023-04-09T08:36:05.003Z,95772
2023-04-09T08:39:30.159Z,95776
2023-04-09T08:42:55.350Z,95775
2023-04-09T08:46:20.705Z,95774
2023-04-09T08:49:46.026Z,95774
2023-04-09T08:53:11.272Z,95776
2023-04-09T08:56:36.607Z,95776
2023-04-09T09:00:01.962Z,95771
2023-04-09T09:03:27.390Z,95777
2023-04-09T09:06:54.212Z,95768
2023-04-09T09:10:17.991Z,95766
2023-04-09T09:13:43.272Z,95763
2023-04-09T09:17:08.750Z,95762
2023-04-09T09:20:33.979Z,95765
2023-04-09T09:23:59.335Z,95770
2023-04-09T09:27:24.607Z,95757
2023-04-09T09:30:49.944Z,95759
2023-04-09T09:34:15.210Z,95757
2023-04-09T09:37:40.708Z,95765
2023-04-09T09:41:06.888Z,95759
2023-04-09T09:44:50.870Z,95762
2023-04-09T09:48:32.143Z,95755
2023-04-09T09:52:07.598Z,95757
2023-04-09T09:55:48.506Z,95767
2023-04-09T09:59:21.243Z,95763
2023-04-09T10:03:07.869Z,95760
2023-04-09T10:06:56.097Z,95762
2023-04-09T10:11:06.956Z,95759
2023-04-09T10:16:14.883Z,95756
2023-04-09T10:19:40.215Z,95751
2023-04-09T10:23:08.477Z,95752
2023-04-09T10:26:33.747Z,95755
2023-04-09T10:29:59.051Z,95755
2023-04-09T10:33:24.322Z,95755
2023-04-09T10:36:49.588Z,95750
2023-04-09T10:40:14.887Z,95747
2023-04-09T10:43:40.164Z,95747
2023-04-09T10:47:05.454Z,95746
2023-04-09T10:50:30.978Z,95742
2023-04-09T10:53:57.694Z,95741
2023-04-09T10:57:23.498Z,95736
2023-04-09T11:00:50.205Z,95742
2023-04-09T11:04:15.998Z,95727
2023-04-09T11:07:41.972Z,95734
2023-04-09T11:11:08.044Z,95734
2023-04-09T11:14:34.154Z,95735
2023-04-09T11:18:00.325Z,95736
2023-04-09T11:21:26.438Z,95734
2023-04-09T11:24:52.709Z,95734
2023-04-09T11:28:19.046Z,95727
2023-04-09T11:31:45.543Z,95724
2023-04-09T11:35:12.074Z,95730
2023-04-09T11:38:38.596Z,95729
2023-04-09T11:42:05.393Z,95732
2023-04-09T11:45:32.075Z,95729
2023-04-09T11:48:58.858Z,95723
2023-04-09T11:52:26.005Z,95735
2023-04-09T11:55:53.050Z,95728
2023-04-09T11:59:20.133Z,95726
2023-04-09T12:02:47.124Z,95726
2023-04-09T12:06:14.112Z,95724
2023-04-09T12:09:41.014Z,95720
2023-04-09T12:13:08.636Z,95716
2023-04-09T12:16:35.560Z,95720
2023-04-09T12:20:01.492Z,95718
2023-04-09T12:23:27.497Z,95718
2023-04-09T12:26:53.924Z,95718
2023-04-09T12:30:20.081Z,95713
2023-04-09T12:33:46.025Z,95715
2023-04-09T12:37:11.595Z,95710
2023-04-09T12:40:37.227Z,95704
2023-04-09T12:44:02.859Z,95704
2023-04-09T12:47:28.447Z,95707
2023-04-09T12:50:54.029Z,95706
2023-04-09T12:54:19.648Z,95705
2023-04-09T12:57:45.314Z,95690
2023-04-09T13:01:11.608Z,95685
2023-04-09T13:05:21.977Z,95683
2023-04-09T13:08:55.751Z,95683
2023-04-09T13:12:42.338Z,95681
2023-04-09T13:16:22.801Z,95677
2023-04-09T13:21:01.775Z,95681
2023-04-09T13:24:28.197Z,95676
2023-04-09T13:27:54.736Z,95668
2023-04-09T13:31:22.637Z,95666
2023-04-09T13:34:52.085Z,95659
2023-04-09T13:38:21.485Z,95661
2023-04-09T13:41:51.917Z,95665
2023-04-09T13:45:22.085Z,95655
2023-04-09T13:48:52.142Z,95658
2023-04-09T13:52:21.412Z,95654
2023-04-09T13:55:50.533Z,95649
2023-04-09T13:59:18.470Z,95654
2023-04-09T14:02:44.222Z,95646
2023-04-09T14:06:09.853Z,95651
2023-04-09T14:09:37.018Z,95653
2023-04-09T14:13:03.219Z,95654
2023-04-09T14:16:28.991Z,95653
2023-04-09T14:19:54.643Z,95652
2023-04-09T14:23:20.346Z,95654
2023-04-09T14:26:45.894Z,95652
2023-04-09T14:30:11.473Z,95652
2023-04-09T14:33:37.275Z,95649
2023-04-09T14:37:02.951Z,95648
2023-04-09T14:40:28.637Z,95646
2023-04-09T14:43:56.480Z,95645
2023-04-09T14:47:22.425Z,95645
2023-04-09T14:50:48.249Z,95639
2023-04-09T14:54:14.296Z,95641
2023-04-09T14:57:40.822Z,95639
2023-04-09T15:01:07.649Z,95635
2023-04-09T15:04:34.247Z,95634
2023-04-09T15:41:20.853Z,95633
2023-04-09T15:44:46.202Z,95637
2023-04-09T15:48:11.558Z,95637
2023-04-09T15:51:36.822Z,95646
2023-04-09T15:55:02.134Z,95645
2023-04-09T15:58:27.544Z,95644
2023-04-09T16:01:52.874Z,95637
2023-04-09T16:05:18.136Z,95643
2023-04-09T16:08:43.404Z,95634
2023-04-09T16:12:08.788Z,95635
2023-04-09T16:15:34.085Z,95637
2023-04-09T16:18:59.375Z,95632
2023-04-09T16:22:24.671Z,95640
2023-04-09T16:25:50.036Z,95642
2023-04-09T16:29:15.389Z,95638
2023-04-09T16:32:40.803Z,95641
2023-04-09T16:36:06.068Z,95638
2023-04-09T16:39:31.491Z,95642
2023-04-09T16:42:57.161Z,95644
2023-04-09T16:46:24.330Z,95642
2023-04-09T16:49:51.001Z,95638
2023-04-09T16:53:17.453Z,95643
2023-04-09T16:56:43.476Z,95643
2023-04-09T17:00:09.425Z,95645
2023-04-09T17:03:35.451Z,95649
2023-04-09T17:07:01.497Z,95649
2023-04-09T17:10:28.083Z,95647
2023-04-09T17:13:56.161Z,95645
2023-04-09T17:17:22.380Z,95643
2023-04-09T17:20:49.124Z,95645
2023-04-09T17:24:17.924Z,95638
2023-04-09T17:27:43.985Z,95646
2023-04-09T17:31:10.050Z,95644
2023-04-09T17:35:03.521Z,95646
2023-04-09T17:38:29.281Z,95647
2023-04-09T17:42:19.256Z,95645
2023-04-09T17:45:45.537Z,95646
2023-04-09T17:49:11.799Z,95648
2023-04-09T17:52:39.853Z,95646
2023-04-09T17:56:06.745Z,95650
2023-04-09T17:59:32.766Z,95647
2023-04-09T18:03:00.933Z,95654
2023-04-09T18:06:30.620Z,95659
2023-04-09T18:10:05.835Z,95666
2023-04-09T18:13:40.378Z,95673
2023-04-09T18:17:16.590Z,95674
2023-04-09T18:20:43.563Z,95671
2023-04-09T18:24:09.966Z,95675
2023-04-09T18:27:36.222Z,95677
2023-04-09T18:31:02.699Z,95683
2023-04-09T18:34:29.423Z,95684
2023-04-09T18:37:56.424Z,95688
2023-04-09T18:41:23.639Z,95687
2023-04-09T18:44:52.906Z,95694
2023-04-09T18:48:20.465Z,95692
2023-04-09T18:51:48.812Z,95691
2023-04-09T18:55:15.576Z,95693
2023-04-09T18:58:42.191Z,95698
2023-04-09T19:02:09.286Z,95702
2023-04-09T19:05:36.083Z,95705
2023-04-09T19:09:02.752Z,95714
2023-04-09T19:12:29.338Z,95710
2023-04-09T19:15:55.967Z,95711
2023-04-09T19:19:22.647Z,95705
2023-04-09T19:22:49.290Z,95712
2023-04-09T19:26:15.947Z,95720
2023-04-09T19:29:42.470Z,95723
2023-04-09T19:33:09.404Z,95718
2023-04-09T19:36:36.040Z,95716
2023-04-09T19:40:02.322Z,95731
2023-04-09T19:43:28.648Z,95729
2023-04-09T19:46:55.052Z,95730
2023-04-09T19:50:21.416Z,95733
2023-04-09T19:53:47.722Z,95729
2023-04-09T19:57:14.077Z,95735
2023-04-09T20:00:40.269Z,95732
2023-04-09T20:04:06.333Z,95728
2023-04-09T20:07:32.556Z,95735
2023-04-09T20:10:58.879Z,95737
2023-04-09T20:14:25.253Z,95734
2023-04-09T20:17:51.475Z,95732
2023-04-09T20:21:17.379Z,95730
2023-04-09T20:24:43.426Z,95735
2023-04-09T20:28:11.291Z,95738
2023-04-09T20:31:38.808Z,95743
2023-04-09T20:35:04.896Z,95735
2023-04-09T20:38:30.728Z,95740
2023-04-09T20:41:56.702Z,95739
2023-04-09T20:45:22.595Z,95737
2023-04-09T20:48:51.307Z,95739
2023-04-09T20:52:17.170Z,95733
2023-04-09T20:55:43.149Z,95735
2023-04-09T20:59:09.025Z,95728
2023-04-09T21:02:34.932Z,95732
2023-04-09T21:06:00.794Z,95730
2023-04-09T21:09:26.881Z,95729
2023-04-09T21:12:52.903Z,95727
2023-04-09T21:16:18.841Z,95732
2023-04-09T21:19:44.567Z,95730
2023-04-09T21:23:10.406Z,95728
2023-04-09T21:26:49.797Z,95733
2023-04-09T21:30:02.174Z,95737
2023-04-09T21:33:29.815Z,95736
2023-04-09T21:36:54.846Z,95732
2023-04-09T21:40:20.745Z,95722
2023-04-09T21:44:19.897Z,95716
2023-04-09T21:47:45.306Z,95713
2023-04-09T21:51:10.642Z,95714
2023-04-09T21:54:36.147Z,95716
2023-04-09T21:58:02.994Z,95715
2023-04-09T22:01:30.468Z,95714
2023-04-09T22:04:58.639Z,95715
2023-04-09T22:08:27.686Z,95717
2023-04-09T22:11:54.145Z,95716
2023-04-09T22:15:19.568Z,95718
2023-04-09T22:18:45.139Z,95711
2023-04-09T22:22:10.537Z,95708
2023-04-09T22:25:35.920Z,95713
2023-04-09T22:29:01.575Z,95713
2023-04-09T22:32:26.967Z,95711
2023-04-09T22:35:52.603Z,95719
2023-04-09T22:39:17.983Z,95719
2023-04-09T22:42:43.353Z,95727
2023-04-09T22:46:08.786Z,95730
2023-04-09T22:49:34.080Z,95727
2023-04-09T22:52:59.501Z,95726
2023-04-09T22:57:58.920Z,95729
2023-04-09T23:01:26.827Z,95719
2023-04-09T23:04:58.347Z,95723
2023-04-09T23:16:47.208Z,95728
2023-04-09T23:21:41.978Z,95714
2023-04-09T23:26:49.545Z,95722
2023-04-09T23:30:14.872Z,95723
2023-04-09T23:34:02.751Z,95721
2023-04-09T23:37:29.684Z,95724
2023-04-09T23:40:55.075Z,95721
2023-04-09T23:44:21.543Z,95719
2023-04-09T23:47:47.302Z,95711
2023-04-09T23:51:12.549Z,95714
2023-04-09T23:54:37.768Z,95722
2023-04-09T23:58:02.962Z,95717
